Time;durP1;ratioP1;P1;durP2;ratioP2;P2;SDS_P1;SDS_P2;PMS_P1;PMS_P2;Temp;Humidity;BMP_temperature;BMP_pressure;BME280_temperature;BME280_humidity;BME280_pressure;Samples;Min_cycle;Max_cycle;Signal;HPM_P1;HPM_P2
2022/10/12 00:00:08;;;;;;;;;;;;;;;22.08;40.71;99858.41;4515478;31;33828;-83
2022/10/12 00:02:39;;;;;;;;;;;;;;;22.07;40.79;99861.97;4504092;31;35225;-83
2022/10/12 00:05:07;;;;;;;;;;;;;;;22.07;40.84;99861.97;4505764;31;34238;-90
2022/10/12 00:07:34;;;;;;;;;;;;;;;22.05;41.04;99852.38;4514692;31;34629;-94
2022/10/12 00:10:02;;;;;;;;;;;;;;;22.06;41.22;99860.25;4514940;31;33451;-86
2022/10/12 00:12:29;;;;;;;;;;;;;;;22.08;41.29;99866.34;4513698;31;34425;-83
2022/10/12 00:14:57;;;;;;;;;;;;;;;22.18;41.08;99856.47;4513287;31;34081;-83
2022/10/12 00:17:24;;;;;;;;;;;;;;;22.23;40.92;99851.94;4514772;31;33390;-82
2022/10/12 00:19:51;;;;;;;;;;;;;;;22.14;41.08;99853.94;4509513;31;34033;-93
2022/10/12 00:22:18;;;;;;;;;;;;;;;22.10;41.28;99861.03;4511846;31;34360;-93
2022/10/12 00:24:45;;;;;;;;;;;;;;;22.20;41.01;99854.69;4514956;31;34166;-93
2022/10/12 00:27:13;;;;;;;;;;;;;;;22.19;40.96;99860.84;4514891;31;34172;-82
2022/10/12 00:29:40;;;;;;;;;;;;;;;22.17;40.95;99857.41;4512920;31;34251;-93
2022/10/12 00:32:08;;;;;;;;;;;;;;;22.08;41.21;99863.69;4514722;31;35108;-93
2022/10/12 00:34:35;;;;;;;;;;;;;;;22.17;40.96;99862.69;4514467;31;34013;-82
2022/10/12 00:37:02;;;;;;;;;;;;;;;22.07;41.13;99866.38;4514270;31;33418;-82
2022/10/12 00:39:29;;;;;;;;;;;;;;;22.07;41.08;99858.47;4514391;31;34448;-82
2022/10/12 00:41:57;;;;;;;;;;;;;;;22.06;41.13;99856.75;4514048;31;35162;-83
2022/10/12 00:44:39;;;;;;;;;;;;;;;22.04;41.17;99853.25;4513749;31;34965;-84
2022/10/12 00:47:28;;;;;;;;;;;;;;;21.96;41.18;99857.84;4514194;31;33338;-95
2022/10/12 00:49:57;;;;;;;;;;;;;;;22.00;41.16;99860.38;4514582;31;34181;-93
2022/10/12 00:52:27;;;;;;;;;;;;;;;21.96;41.18;99856.06;4499726;31;33360;-89
2022/10/12 00:54:54;;;;;;;;;;;;;;;21.94;41.24;99854.38;4504366;31;34243;-82
2022/10/12 00:57:21;;;;;;;;;;;;;;;21.95;41.21;99859.62;4513134;31;33472;-92
2022/10/12 00:59:53;;;;;;;;;;;;;;;21.95;41.15;99856.97;4512803;31;34112;-92
2022/10/12 01:02:21;;;;;;;;;;;;;;;21.92;41.09;99856.19;4513399;31;34189;-92
2022/10/12 01:04:49;;;;;;;;;;;;;;;21.78;41.47;99857.38;4514270;31;34094;-81
2022/10/12 01:07:16;;;;;;;;;;;;;;;21.83;41.42;99862.53;4513520;31;33122;-82
2022/10/12 01:09:43;;;;;;;;;;;;;;;21.86;41.34;99858.06;4506094;31;33457;-93
2022/10/12 01:12:10;;;;;;;;;;;;;;;21.85;41.25;99860.72;4505862;31;35380;-90
2022/10/12 01:14:38;;;;;;;;;;;;;;;21.91;40.88;99865.88;4511882;31;34236;-88
2022/10/12 01:17:23;;;;;;;;;;;;;;;21.82;40.96;99869.59;4514359;31;33115;-83
2022/10/12 01:20:00;;;;;;;;;;;;;;;21.74;41.25;99873.28;4512987;31;32337;-82
2022/10/12 01:22:27;;;;;;;;;;;;;;;21.29;42.30;99875.94;4514005;31;34978;-84
2022/10/12 01:25:07;;;;;;;;;;;;;;;21.42;42.23;99876.59;4508882;31;35054;-83
2022/10/12 01:27:53;;;;;;;;;;;;;;;21.51;42.06;99881.69;4512525;31;33427;-87
2022/10/12 01:30:21;;;;;;;;;;;;;;;21.66;41.71;99881.38;4515255;31;34076;-82
2022/10/12 01:32:51;;;;;;;;;;;;;;;21.65;41.69;99884.91;4514786;31;34687;-83
2022/10/12 01:35:38;;;;;;;;;;;;;;;21.62;41.88;99890.25;4515318;31;33715;-87
2022/10/12 01:38:21;;;;;;;;;;;;;;;21.53;42.17;99893.94;4515038;31;33053;-83
2022/10/12 01:41:07;;;;;;;;;;;;;;;21.28;43.18;99884.75;4515840;31;34057;-82
2022/10/12 01:43:35;;;;;;;;;;;;;;;21.34;43.35;99890.81;4506621;31;35835;-84
2022/10/12 01:46:04;;;;;;;;;;;;;;;21.52;42.95;99888.72;4501340;31;34709;-91
2022/10/12 01:48:31;;;;;;;;;;;;;;;21.58;42.97;99888.56;4515691;31;33370;-82
2022/10/12 01:50:59;;;;;;;;;;;;;;;21.77;42.53;99878.50;4513104;31;34113;-84
2022/10/12 01:53:27;;;;;;;;;;;;;;;21.75;42.46;99889.09;4514449;31;34484;-82
2022/10/12 01:55:56;;;;;;;;;;;;;;;21.64;42.83;99887.59;4516541;31;34259;-82
2022/10/12 01:58:39;;;;;;;;;;;;;;;21.49;43.24;99894.06;4514318;31;33873;-83
2022/10/12 02:01:09;;;;;;;;;;;;;;;21.62;42.97;99896.38;4515764;31;34303;-93
2022/10/12 02:03:47;;;;;;;;;;;;;;;21.69;42.79;99897.13;4504891;31;34383;-93
2022/10/12 02:06:15;;;;;;;;;;;;;;;21.69;42.73;99894.50;4506584;31;34853;-84
2022/10/12 02:08:55;;;;;;;;;;;;;;;21.82;42.56;99896.00;4509956;31;33871;-81
2022/10/12 02:11:22;;;;;;;;;;;;;;;21.88;42.46;99894.97;4514156;31;33408;-83
2022/10/12 02:13:50;;;;;;;;;;;;;;;21.64;43.04;99888.47;4500913;31;33844;-91
2022/10/12 02:16:18;;;;;;;;;;;;;;;21.81;42.73;99888.94;4503274;31;34159;-82
2022/10/12 02:18:46;;;;;;;;;;;;;;;21.75;42.88;99894.37;4508280;31;33403;-83
2022/10/12 02:21:15;;;;;;;;;;;;;;;21.73;42.92;99887.37;4504187;31;34965;-88
2022/10/12 02:23:43;;;;;;;;;;;;;;;21.90;42.58;99890.53;4495746;31;34478;-83
2022/10/12 02:26:11;;;;;;;;;;;;;;;21.85;42.57;99892.41;4501248;31;34325;-83
2022/10/12 02:28:38;;;;;;;;;;;;;;;21.87;42.50;99894.09;4510793;31;32802;-92
2022/10/12 02:31:05;;;;;;;;;;;;;;;21.90;42.45;99887.03;4514134;31;34185;-83
2022/10/12 02:33:35;;;;;;;;;;;;;;;21.90;42.42;99889.69;4514995;31;34865;-83
2022/10/12 02:36:04;;;;;;;;;;;;;;;21.94;42.26;99891.34;4514951;31;33665;-82
2022/10/12 02:38:32;;;;;;;;;;;;;;;21.93;42.24;99881.66;4509925;31;34134;-82
2022/10/12 02:41:07;;;;;;;;;;;;;;;22.04;41.87;99883.16;4501447;31;34575;-83
2022/10/12 02:43:36;;;;;;;;;;;;;;;21.91;41.97;99887.00;4509169;31;33777;-83
2022/10/12 02:46:03;;;;;;;;;;;;;;;21.78;42.27;99886.41;4513912;31;34887;-82
2022/10/12 02:48:30;;;;;;;;;;;;;;;21.79;42.31;99882.00;4513517;31;33346;-83
2022/10/12 02:50:58;;;;;;;;;;;;;;;21.69;42.50;99896.28;4501355;31;34001;-82
2022/10/12 02:53:25;;;;;;;;;;;;;;;21.70;42.47;99885.66;4501007;31;34068;-82
2022/10/12 02:55:55;;;;;;;;;;;;;;;21.64;42.49;99887.59;4510120;31;34178;-82
2022/10/12 02:58:22;;;;;;;;;;;;;;;21.56;42.67;99893.03;4501498;31;34179;-82
2022/10/12 03:00:49;;;;;;;;;;;;;;;21.41;43.05;99898.62;4512272;31;34114;-93
2022/10/12 03:03:16;;;;;;;;;;;;;;;21.46;42.84;99889.69;4514769;31;34285;-83
2022/10/12 03:05:44;;;;;;;;;;;;;;;21.50;42.81;99895.78;4515001;31;34036;-91
2022/10/12 03:08:11;;;;;;;;;;;;;;;21.43;42.98;99894.16;4515187;31;33114;-81
2022/10/12 03:10:38;;;;;;;;;;;;;;;21.45;42.89;99893.25;4514706;31;34960;-82
2022/10/12 03:13:05;;;;;;;;;;;;;;;21.32;43.22;99900.47;4513375;31;34446;-83
2022/10/12 03:15:33;;;;;;;;;;;;;;;21.36;43.10;99903.97;4501524;31;34084;-83
2022/10/12 03:18:00;;;;;;;;;;;;;;;21.30;43.21;99899.66;4508929;31;33220;-83
2022/10/12 03:20:27;;;;;;;;;;;;;;;21.38;43.00;99903.03;4498157;31;34125;-83
2022/10/12 03:22:54;;;;;;;;;;;;;;;21.35;43.07;99900.47;4512488;31;35037;-89
2022/10/12 03:25:21;;;;;;;;;;;;;;;21.33;42.94;99902.28;4514453;31;34730;-84
2022/10/12 03:27:48;;;;;;;;;;;;;;;21.45;42.56;99895.03;4500475;31;33461;-83
2022/10/12 03:30:16;;;;;;;;;;;;;;;21.33;42.71;99904.91;4503376;31;34111;-81
2022/10/12 03:32:43;;;;;;;;;;;;;;;21.53;42.44;99898.38;4513743;31;33466;-93
2022/10/12 03:35:11;;;;;;;;;;;;;;;21.33;42.67;99898.78;4500665;31;33442;-94
2022/10/12 03:37:39;;;;;;;;;;;;;;;21.55;42.39;99902.69;4500834;31;33525;-82
2022/10/12 03:40:07;;;;;;;;;;;;;;;21.44;42.69;99902.06;4515028;31;34373;-82
2022/10/12 03:42:34;;;;;;;;;;;;;;;21.31;42.85;99898.75;4515355;31;35156;-82
2022/10/12 03:45:01;;;;;;;;;;;;;;;21.37;42.56;99900.44;4515240;31;34000;-84
2022/10/12 03:47:29;;;;;;;;;;;;;;;21.42;42.45;99900.34;4514036;31;34364;-83
2022/10/12 03:49:57;;;;;;;;;;;;;;;21.34;42.61;99895.22;4515086;31;35055;-82
2022/10/12 03:52:24;;;;;;;;;;;;;;;21.37;42.65;99896.03;4515006;31;33999;-82
2022/10/12 03:54:51;;;;;;;;;;;;;;;21.47;42.41;99896.69;4514624;31;33802;-84
2022/10/12 03:57:19;;;;;;;;;;;;;;;21.24;42.94;99894.47;4514767;31;33093;-82
2022/10/12 03:59:46;;;;;;;;;;;;;;;21.43;42.68;99899.44;4515112;31;33787;-82
2022/10/12 04:02:13;;;;;;;;;;;;;;;21.40;42.77;99899.50;4514183;31;34949;-90
2022/10/12 04:04:43;;;;;;;;;;;;;;;21.54;42.42;99898.31;4514886;31;33893;-82
2022/10/12 04:07:10;;;;;;;;;;;;;;;21.57;42.28;99892.13;4514409;31;33016;-82
2022/10/12 04:09:37;;;;;;;;;;;;;;;21.50;42.28;99890.50;4513971;31;33870;-93
2022/10/12 04:12:05;;;;;;;;;;;;;;;21.51;42.16;99881.69;4514168;31;34841;-82
2022/10/12 04:14:32;;;;;;;;;;;;;;;21.30;42.59;99889.09;4500462;31;34754;-81
2022/10/12 04:16:59;;;;;;;;;;;;;;;21.23;42.67;99886.63;4514095;31;33123;-84
2022/10/12 04:19:27;;;;;;;;;;;;;;;21.29;42.56;99887.37;4510184;31;34042;-89
2022/10/12 04:21:54;;;;;;;;;;;;;;;21.30;42.58;99893.50;4513942;31;33982;-82
2022/10/12 04:24:21;;;;;;;;;;;;;;;21.27;42.44;99889.16;4510469;31;33730;-82
2022/10/12 04:26:49;;;;;;;;;;;;;;;21.22;42.57;99896.31;4514796;31;33140;-83
2022/10/12 04:29:16;;;;;;;;;;;;;;;21.30;42.39;99893.50;4514522;31;33792;-83
2022/10/12 04:31:43;;;;;;;;;;;;;;;20.78;43.64;99894.47;4505944;31;33603;-82
2022/10/12 04:34:12;;;;;;;;;;;;;;;20.96;43.14;99901.19;4513930;31;33949;-84
2022/10/12 04:36:39;;;;;;;;;;;;;;;21.09;42.71;99902.69;4513556;31;33289;-83
2022/10/12 04:39:07;;;;;;;;;;;;;;;21.22;42.42;99900.72;4513982;31;34282;-83
2022/10/12 04:41:34;;;;;;;;;;;;;;;21.28;42.20;99897.94;4512621;31;34447;-85
2022/10/12 04:44:01;;;;;;;;;;;;;;;21.03;42.75;99898.41;4502349;31;34144;-82
2022/10/12 04:46:28;;;;;;;;;;;;;;;21.14;42.48;99891.16;4507177;31;34230;-82
2022/10/12 04:48:56;;;;;;;;;;;;;;;21.16;42.30;99893.75;4512345;31;34339;-81
2022/10/12 04:51:23;;;;;;;;;;;;;;;21.19;42.31;99899.00;4511686;31;34383;-83
2022/10/12 04:53:50;;;;;;;;;;;;;;;21.22;42.16;99905.97;4512838;31;34832;-94
2022/10/12 04:56:18;;;;;;;;;;;;;;;21.08;42.56;99908.87;4506573;31;33020;-89
2022/10/12 04:58:45;;;;;;;;;;;;;;;20.85;43.07;99904.88;4507739;31;35078;-83
2022/10/12 05:01:12;;;;;;;;;;;;;;;20.74;43.25;99914.72;4515081;31;34985;-90
2022/10/12 05:03:40;;;;;;;;;;;;;;;21.13;42.29;99907.00;4516435;31;34769;-83
2022/10/12 05:06:08;;;;;;;;;;;;;;;21.13;42.24;99913.12;4516777;31;34202;-83
2022/10/12 05:08:35;;;;;;;;;;;;;;;21.12;42.23;99910.53;4514737;31;34507;-83
2022/10/12 05:11:02;;;;;;;;;;;;;;;21.02;42.51;99919.50;4516316;31;35158;-83
2022/10/12 05:13:30;;;;;;;;;;;;;;;20.93;42.74;99914.41;4516159;31;35005;-83
2022/10/12 05:15:57;;;;;;;;;;;;;;;21.11;42.29;99912.31;4514763;31;34032;-84
2022/10/12 05:18:24;;;;;;;;;;;;;;;20.85;42.83;99920.69;4516163;31;34220;-83
2022/10/12 05:20:51;;;;;;;;;;;;;;;20.97;42.66;99918.72;4516125;31;34375;-83
2022/10/12 05:23:23;;;;;;;;;;;;;;;21.05;42.54;99917.69;4515141;31;33876;-83
2022/10/12 05:25:50;;;;;;;;;;;;;;;21.10;42.33;99917.59;4516302;31;33316;-84
2022/10/12 05:28:17;;;;;;;;;;;;;;;21.13;42.39;99917.53;4515213;31;33784;-86
2022/10/12 05:30:47;;;;;;;;;;;;;;;21.10;42.61;99914.97;4515795;31;33973;-84
2022/10/12 05:33:15;;;;;;;;;;;;;;;21.09;42.82;99914.09;4516923;31;33975;-93
2022/10/12 05:35:42;;;;;;;;;;;;;;;21.19;42.72;99925.34;4515658;31;32682;-82
2022/10/12 05:38:15;;;;;;;;;;;;;;;21.26;42.70;99924.34;4516302;31;34292;-83
2022/10/12 05:40:42;;;;;;;;;;;;;;;21.44;42.49;99928.44;4516511;31;34509;-83
2022/10/12 05:43:09;;;;;;;;;;;;;;;21.47;42.55;99927.50;4514774;31;34915;-83
2022/10/12 05:45:36;;;;;;;;;;;;;;;21.30;43.12;99930.44;4499477;31;34166;-83
2022/10/12 05:48:04;;;;;;;;;;;;;;;21.23;43.37;99928.81;4500249;31;33918;-83
2022/10/12 05:50:31;;;;;;;;;;;;;;;21.31;42.98;99935.66;4498786;31;34103;-83
2022/10/12 05:52:58;;;;;;;;;;;;;;;21.35;43.20;99940.03;4500315;31;33971;-83
2022/10/12 05:55:25;;;;;;;;;;;;;;;20.95;43.97;99939.84;4500151;31;32873;-81
2022/10/12 05:57:53;;;;;;;;;;;;;;;20.51;43.96;99930.03;4499952;31;33345;-82
2022/10/12 06:00:20;;;;;;;;;;;;;;;21.17;42.55;99940.31;4515469;31;34095;-81
2022/10/12 06:02:47;;;;;;;;;;;;;;;20.52;43.55;99942.31;4516287;31;33953;-82
2022/10/12 06:05:15;;;;;;;;;;;;;;;20.90;43.52;99945.19;4515984;31;33420;-82
2022/10/12 06:07:42;;;;;;;;;;;;;;;21.29;43.35;99942.75;4516518;31;35101;-81
2022/10/12 06:10:09;;;;;;;;;;;;;;;20.10;44.74;99952.53;4515450;31;34434;-81
2022/10/12 06:12:36;;;;;;;;;;;;;;;20.99;42.75;99945.94;4516048;31;33986;-93
2022/10/12 06:15:04;;;;;;;;;;;;;;;21.14;42.67;99946.53;4515851;31;33361;-82
2022/10/12 06:17:31;;;;;;;;;;;;;;;21.72;41.79;99949.88;4515988;31;34887;-81
2022/10/12 06:19:58;;;;;;;;;;;;;;;21.29;42.16;99949.78;4515736;31;35423;-81
2022/10/12 06:22:26;;;;;;;;;;;;;;;20.89;42.20;99955.75;4515821;31;34895;-81
2022/10/12 06:24:53;;;;;;;;;;;;;;;20.59;43.79;99959.75;4515846;31;33464;-89
2022/10/12 06:27:20;;;;;;;;;;;;;;;20.51;44.07;99953.75;4515718;31;34199;-82
2022/10/12 06:29:47;;;;;;;;;;;;;;;20.59;44.40;99963.25;4513952;31;34372;-81
2022/10/12 06:32:15;;;;;;;;;;;;;;;20.63;44.75;99957.03;4515691;31;33799;-82
2022/10/12 06:34:42;;;;;;;;;;;;;;;20.78;44.44;99961.22;4515387;31;33295;-82
2022/10/12 06:37:09;;;;;;;;;;;;;;;21.23;43.40;99963.09;4514386;31;33603;-81
2022/10/12 06:39:56;;;;;;;;;;;;;;;21.07;42.92;99966.00;4510664;31;35084;-82
2022/10/12 06:42:24;;;;;;;;;;;;;;;20.97;42.99;99963.53;4515853;31;33982;-82
2022/10/12 06:44:52;;;;;;;;;;;;;;;20.98;43.10;99965.28;4515660;31;34028;-94
2022/10/12 06:47:19;;;;;;;;;;;;;;;21.20;42.13;99964.00;4515539;31;33778;-81
2022/10/12 06:49:46;;;;;;;;;;;;;;;20.64;42.36;99966.69;4515753;31;34290;-81
2022/10/12 06:52:14;;;;;;;;;;;;;;;21.09;42.20;99973.88;4514454;31;34318;-81
2022/10/12 06:54:41;;;;;;;;;;;;;;;20.10;44.21;99981.50;4515256;31;34080;-81
2022/10/12 06:57:08;;;;;;;;;;;;;;;20.84;42.93;99979.56;4515328;31;35207;-82
2022/10/12 06:59:35;;;;;;;;;;;;;;;20.86;42.76;99979.53;4514998;31;35163;-81
2022/10/12 07:02:03;;;;;;;;;;;;;;;20.67;42.74;99986.84;4515340;31;35009;-88
2022/10/12 07:04:30;;;;;;;;;;;;;;;20.40;43.02;99983.69;4499426;31;33966;-80
2022/10/12 07:06:57;;;;;;;;;;;;;;;20.60;42.88;99972.91;4499516;31;34162;-81
2022/10/12 07:09:24;;;;;;;;;;;;;;;20.48;43.36;99985.34;4510505;31;34395;-81
2022/10/12 07:11:52;;;;;;;;;;;;;;;20.96;42.11;99975.00;4514038;31;34813;-82
2022/10/12 07:14:19;;;;;;;;;;;;;;;20.68;42.96;99988.59;4515495;31;33394;-81
2022/10/12 07:16:47;;;;;;;;;;;;;;;21.04;42.07;99981.88;4514965;31;34024;-81
2022/10/12 07:19:20;;;;;;;;;;;;;;;20.26;43.47;99980.38;4515421;31;34395;-81
2022/10/12 07:21:48;;;;;;;;;;;;;;;20.85;42.18;99975.16;4514548;31;33725;-81
2022/10/12 07:24:15;;;;;;;;;;;;;;;20.42;43.33;99984.56;4514944;31;33121;-81
2022/10/12 07:26:42;;;;;;;;;;;;;;;21.14;41.46;99966.78;4515741;31;33808;-82
2022/10/12 07:29:09;;;;;;;;;;;;;;;21.30;41.37;99973.50;4515669;31;33983;-81
2022/10/12 07:31:37;;;;;;;;;;;;;;;20.20;42.54;99982.25;4515081;31;33850;-81
2022/10/12 07:34:04;;;;;;;;;;;;;;;19.79;43.75;99981.88;4515373;31;33542;-81
2022/10/12 07:36:31;;;;;;;;;;;;;;;19.44;44.62;99983.09;4515546;31;33085;-81
2022/10/12 07:39:18;;;;;;;;;;;;;;;20.13;42.83;99977.06;4515306;31;33944;-81
2022/10/12 07:41:46;;;;;;;;;;;;;;;20.46;42.18;99974.00;4515577;31;34603;-82
2022/10/12 07:44:13;;;;;;;;;;;;;;;19.47;44.21;99987.44;4515054;31;34318;-81
2022/10/12 07:46:40;;;;;;;;;;;;;;;20.63;42.41;99974.62;4515172;31;34661;-81
2022/10/12 07:49:08;;;;;;;;;;;;;;;21.07;41.74;99975.69;4515324;31;34947;-81
2022/10/12 07:51:36;;;;;;;;;;;;;;;20.52;42.42;99976.53;4500645;31;33477;-81
2022/10/12 07:54:03;;;;;;;;;;;;;;;20.55;41.73;99980.00;4515132;31;33433;-81
2022/10/12 07:56:30;;;;;;;;;;;;;;;21.21;40.69;99971.00;4515037;31;34003;-81
2022/10/12 07:58:57;;;;;;;;;;;;;;;20.72;41.25;99981.50;4514895;31;34086;-81
2022/10/12 08:01:28;;;;;;;;;;;;;;;21.46;40.83;99974.12;4513707;31;34155;-81
2022/10/12 08:03:56;;;;;;;;;;;;;;;21.42;39.83;99977.72;4513907;31;34103;-81
2022/10/12 08:06:29;;;;;;;;;;;;;;;20.53;41.11;99983.56;4515005;31;33229;-81
2022/10/12 08:08:57;;;;;;;;;;;;;;;19.94;42.65;99983.44;4513819;31;34283;-81
2022/10/12 08:11:24;;;;;;;;;;;;;;;20.44;41.66;99981.03;4513711;31;34272;-81
2022/10/12 08:13:51;;;;;;;;;;;;;;;20.74;41.39;99985.00;4513595;31;34288;-81
2022/10/12 08:16:20;;;;;;;;;;;;;;;21.16;40.57;99979.91;4515141;31;35121;-81
2022/10/12 08:18:47;;;;;;;;;;;;;;;20.31;42.24;99983.84;4514935;31;35438;-81
2022/10/12 08:21:15;;;;;;;;;;;;;;;20.11;42.73;99993.75;4502080;31;34852;-82
2022/10/12 08:23:44;;;;;;;;;;;;;;;20.79;41.12;99986.66;4497629;31;33421;-82
2022/10/12 08:26:11;;;;;;;;;;;;;;;21.28;41.02;99975.28;4499056;31;34689;-81
2022/10/12 08:28:38;;;;;;;;;;;;;;;21.56;40.12;99982.75;4498523;31;34900;-81
2022/10/12 08:31:10;;;;;;;;;;;;;;;21.75;39.89;99985.91;4498761;31;34467;-81
2022/10/12 08:33:38;;;;;;;;;;;;;;;20.81;41.47;99979.63;4497032;31;34043;-81
2022/10/12 08:36:05;;;;;;;;;;;;;;;19.73;42.77;99987.19;4497839;31;33903;-81
2022/10/12 08:38:33;;;;;;;;;;;;;;;20.92;40.76;99973.31;4498929;31;34896;-81
2022/10/12 08:41:06;;;;;;;;;;;;;;;19.76;43.70;99988.94;4498683;31;33957;-81
2022/10/12 08:43:55;;;;;;;;;;;;;;;19.86;43.30;99980.91;4470048;31;865697;-81
2022/10/12 08:46:22;;;;;;;;;;;;;;;20.93;41.42;99972.41;4497560;31;34205;-82
2022/10/12 08:48:53;;;;;;;;;;;;;;;20.86;41.94;99974.25;4497490;31;34254;-82
2022/10/12 08:51:21;;;;;;;;;;;;;;;20.46;42.68;99971.34;4498592;31;34948;-81
2022/10/12 08:53:50;;;;;;;;;;;;;;;21.46;40.77;99967.97;4497242;31;34081;-81
2022/10/12 08:56:18;;;;;;;;;;;;;;;21.65;39.47;99974.62;4498548;31;34161;-81
2022/10/12 08:58:46;;;;;;;;;;;;;;;21.73;39.55;99978.00;4497249;31;33864;-82
2022/10/12 09:01:35;;;;;;;;;;;;;;;22.05;39.42;99973.84;4497141;31;33997;-82
2022/10/12 09:04:15;;;;;;;;;;;;;;;22.43;38.67;99975.66;4497349;31;33483;-81
2022/10/12 09:06:46;;;;;;;;;;;;;;;22.16;39.25;99978.91;4498242;31;34125;-81
2022/10/12 09:09:35;;;;;;;;;;;;;;;21.79;39.69;99979.66;4498269;31;35145;-81
2022/10/12 09:12:16;;;;;;;;;;;;;;;21.20;40.56;99982.47;4498239;31;34849;-81
2022/10/12 09:14:44;;;;;;;;;;;;;;;21.37;40.79;99982.22;4496627;31;34144;-82
2022/10/12 09:17:20;;;;;;;;;;;;;;;22.24;39.79;99976.97;4496991;31;34102;-86
2022/10/12 09:19:47;;;;;;;;;;;;;;;22.27;39.21;99980.41;4497256;31;33903;-82
2022/10/12 09:22:18;;;;;;;;;;;;;;;22.97;38.31;99972.63;4498111;31;34409;-81
2022/10/12 09:24:45;;;;;;;;;;;;;;;23.14;38.18;99977.47;4498439;31;33048;-81
2022/10/12 09:27:14;;;;;;;;;;;;;;;22.59;38.32;99978.81;4498155;31;34301;-82
2022/10/12 09:29:44;;;;;;;;;;;;;;;23.08;38.42;99977.66;4498080;31;34921;-81
2022/10/12 09:32:30;;;;;;;;;;;;;;;23.13;37.82;99982.81;4498700;31;34101;-90
2022/10/12 09:34:57;;;;;;;;;;;;;;;23.04;37.98;99981.28;4502005;31;33938;-82
2022/10/12 09:37:26;;;;;;;;;;;;;;;23.65;36.86;99977.00;4503636;31;33895;-82
2022/10/12 09:39:53;;;;;;;;;;;;;;;21.94;39.66;99968.78;4499112;31;34282;-81
2022/10/12 09:42:21;;;;;;;;;;;;;;;21.92;39.60;99978.47;4503622;31;34398;-82
2022/10/12 09:44:49;;;;;;;;;;;;;;;22.78;39.26;99980.13;4501559;31;32632;-82
2022/10/12 09:47:19;;;;;;;;;;;;;;;22.43;39.04;99974.81;4509454;31;35076;-81
2022/10/12 09:49:49;;;;;;;;;;;;;;;22.54;39.16;99978.03;4506358;31;34424;-82
2022/10/12 09:52:20;;;;;;;;;;;;;;;22.92;38.41;99977.19;4503152;31;34234;-82
2022/10/12 09:54:52;;;;;;;;;;;;;;;22.28;39.44;99971.59;4501593;31;34275;-82
2022/10/12 09:57:24;;;;;;;;;;;;;;;21.79;40.00;99977.87;4508043;31;33984;-81
2022/10/12 09:59:51;;;;;;;;;;;;;;;21.85;40.49;99979.50;4502951;31;34263;-81
2022/10/12 10:02:19;;;;;;;;;;;;;;;21.48;41.92;99982.00;4505185;31;33842;-81
2022/10/12 10:04:47;;;;;;;;;;;;;;;22.12;39.72;99983.34;4506161;31;33267;-89
2022/10/12 10:07:29;;;;;;;;;;;;;;;22.75;37.88;99980.19;4510292;31;33833;-82
2022/10/12 10:10:02;;;;;;;;;;;;;;;23.02;38.09;99975.16;4511210;31;35244;-81
2022/10/12 10:12:29;;;;;;;;;;;;;;;22.37;39.66;99977.56;4513222;31;33525;-82
2022/10/12 10:14:58;;;;;;;;;;;;;;;23.28;37.81;99983.28;4508261;31;32918;-88
2022/10/12 10:17:26;;;;;;;;;;;;;;;23.21;37.46;99976.41;4500998;31;34104;-81
2022/10/12 10:19:54;;;;;;;;;;;;;;;23.40;37.13;99973.28;4513605;31;35056;-82
2022/10/12 10:22:22;;;;;;;;;;;;;;;22.16;39.34;99977.16;4503436;31;34490;-81
2022/10/12 10:24:52;;;;;;;;;;;;;;;23.13;37.52;99980.19;4505959;31;33125;-82
2022/10/12 10:27:35;;;;;;;;;;;;;;;23.54;37.68;99973.78;4513319;31;34074;-82
2022/10/12 10:30:07;;;;;;;;;;;;;;;22.73;38.51;99982.00;4513426;31;34468;-82
2022/10/12 10:33:06;;;;;;;;;;;;;;;23.67;36.46;99975.19;4502570;31;32791;-82
2022/10/12 10:35:33;;;;;;;;;;;;;;;23.00;38.11;99977.84;4505029;31;33395;-82
2022/10/12 10:38:02;;;;;;;;;;;;;;;23.23;38.04;99984.31;4502141;31;33864;-82
2022/10/12 10:40:30;;;;;;;;;;;;;;;23.79;37.81;99974.88;4502129;31;35197;-83
2022/10/12 10:42:59;;;;;;;;;;;;;;;22.36;38.36;99981.13;4502993;31;33812;-82
2022/10/12 10:45:28;;;;;;;;;;;;;;;23.72;35.75;99978.59;4504593;31;32495;-82
2022/10/12 10:48:00;;;;;;;;;;;;;;;23.54;37.75;99979.06;4512323;31;34348;-82
2022/10/12 10:50:37;;;;;;;;;;;;;;;23.86;36.13;99978.19;4501903;31;33010;-82
2022/10/12 10:53:05;;;;;;;;;;;;;;;22.10;39.33;99978.09;4500959;31;34167;-82
2022/10/12 10:55:48;;;;;;;;;;;;;;;21.83;39.36;99976.91;4500234;31;32914;-82
2022/10/12 10:58:18;;;;;;;;;;;;;;;23.00;37.26;99974.34;4511425;31;33729;-82
2022/10/12 11:00:45;;;;;;;;;;;;;;;23.21;37.03;99972.91;4504724;31;34205;-82
2022/10/12 11:03:24;;;;;;;;;;;;;;;22.22;38.60;99977.00;4507821;31;34185;-82
2022/10/12 11:06:06;;;;;;;;;;;;;;;23.41;36.44;99967.06;4510869;31;33291;-82
2022/10/12 11:08:33;;;;;;;;;;;;;;;22.33;38.14;99971.47;4506408;31;35410;-82
2022/10/12 11:11:11;;;;;;;;;;;;;;;23.04;37.61;99962.78;4502614;31;33984;-82
2022/10/12 11:13:56;;;;;;;;;;;;;;;23.69;36.53;99968.09;4502178;31;34468;-82
2022/10/12 11:16:40;;;;;;;;;;;;;;;23.91;36.46;99967.50;4488154;31;33330;-87
2022/10/12 11:19:25;;;;;;;;;;;;;;;23.57;35.23;99963.13;4505612;31;35230;-86
2022/10/12 11:21:54;;;;;;;;;;;;;;;24.48;34.89;99969.31;4512559;31;32978;-82
2022/10/12 11:24:54;;;;;;;;;;;;;;;24.21;35.85;99955.97;4503134;31;33572;-80
2022/10/12 11:27:26;;;;;;;;;;;;;;;24.30;34.69;99968.06;4474471;31;33502;-82
2022/10/12 11:29:54;;;;;;;;;;;;;;;23.94;35.04;99964.72;4512911;31;33956;-82
2022/10/12 11:32:42;;;;;;;;;;;;;;;22.90;36.57;99959.56;4501496;31;33881;-87
2022/10/12 11:35:13;;;;;;;;;;;;;;;23.93;34.72;99957.72;4492318;31;33333;-82
2022/10/12 11:37:44;;;;;;;;;;;;;;;24.32;34.74;99953.00;4500929;31;33752;-88
2022/10/12 11:40:19;;;;;;;;;;;;;;;23.87;34.26;99956.13;4511716;31;33013;-84
2022/10/12 11:43:06;;;;;;;;;;;;;;;23.96;34.79;99954.97;4504090;31;34502;-82
2022/10/12 11:45:35;;;;;;;;;;;;;;;24.34;34.15;99952.94;4509725;31;34061;-90
2022/10/12 11:48:11;;;;;;;;;;;;;;;24.75;33.81;99952.53;4501581;31;33388;-84
2022/10/12 11:50:39;;;;;;;;;;;;;;;23.38;35.18;99956.59;4502928;31;34268;-82
2022/10/12 11:53:07;;;;;;;;;;;;;;;23.41;35.12;99951.19;4509241;31;34472;-82
2022/10/12 11:55:34;;;;;;;;;;;;;;;23.99;34.71;99941.66;4510729;31;34041;-87
2022/10/12 11:58:09;;;;;;;;;;;;;;;23.08;35.97;99951.22;4513441;31;33416;-90
2022/10/12 12:00:42;;;;;;;;;;;;;;;23.00;36.37;99950.53;4495650;31;35578;-84
2022/10/12 12:03:12;;;;;;;;;;;;;;;23.23;36.12;99947.28;4501309;31;34362;-84
2022/10/12 12:05:40;;;;;;;;;;;;;;;22.73;36.39;99946.75;4501385;31;33744;-85
2022/10/12 12:08:07;;;;;;;;;;;;;;;22.69;36.55;99951.28;4504201;31;34238;-83
2022/10/12 12:10:34;;;;;;;;;;;;;;;23.38;35.14;99940.72;4507801;31;35367;-82
2022/10/12 12:13:25;;;;;;;;;;;;;;;23.44;35.23;99943.19;4511112;31;33707;-81
2022/10/12 12:15:53;;;;;;;;;;;;;;;23.57;35.04;99941.94;4510768;31;33466;-81
2022/10/12 12:18:24;;;;;;;;;;;;;;;23.76;34.85;99940.53;4509847;31;33533;-81
2022/10/12 12:21:04;;;;;;;;;;;;;;;24.35;33.73;99926.38;4510101;31;33951;-81
2022/10/12 12:23:35;;;;;;;;;;;;;;;24.50;33.12;99925.06;4506061;31;33750;-88
2022/10/12 12:26:08;;;;;;;;;;;;;;;24.37;35.23;99929.88;4501395;31;34101;-81
2022/10/12 12:28:42;;;;;;;;;;;;;;;24.85;33.73;99926.59;4509556;31;33130;-89
2022/10/12 12:31:13;;;;;;;;;;;;;;;23.73;35.02;99927.38;4508592;31;33424;-82
2022/10/12 12:33:41;;;;;;;;;;;;;;;24.28;34.06;99920.44;4504422;31;35134;-82
2022/10/12 12:36:14;;;;;;;;;;;;;;;24.04;34.76;99927.34;4502184;31;34093;-82
2022/10/12 12:38:44;;;;;;;;;;;;;;;24.50;34.42;99923.28;4507882;31;33344;-88
2022/10/12 12:41:13;;;;;;;;;;;;;;;24.68;34.17;99919.16;4510766;31;34518;-89
2022/10/12 12:43:51;;;;;;;;;;;;;;;24.91;34.32;99917.53;4506295;31;34375;-87
2022/10/12 12:46:19;;;;;;;;;;;;;;;25.08;33.96;99919.59;4505671;31;34929;-84
2022/10/12 12:48:46;;;;;;;;;;;;;;;24.21;34.90;99923.31;4499627;31;33183;-83
2022/10/12 12:51:14;;;;;;;;;;;;;;;24.12;34.32;99924.44;4508077;31;34374;-82
2022/10/12 12:53:44;;;;;;;;;;;;;;;24.87;32.68;99915.91;4511523;31;34046;-84
2022/10/12 12:56:30;;;;;;;;;;;;;;;25.08;33.96;99912.53;4501411;31;34146;-84
2022/10/12 12:59:04;;;;;;;;;;;;;;;24.79;33.94;99915.31;4507383;31;34025;-82
2022/10/12 13:01:36;;;;;;;;;;;;;;;24.88;33.18;99914.97;4510276;31;34961;-83